Time;durP1;ratioP1;P1;durP2;ratioP2;P2;SDS_P1;SDS_P2;PMS_P1;PMS_P2;Temp;Humidity;BMP_temperature;BMP_pressure;BME280_temperature;BME280_humidity;BME280_pressure;Samples;Min_cycle;Max_cycle;Signal;HPM_P1;HPM_P2
2022/11/06 00:01:59;;;;;;;;;5.00;4.00;;;;;8.50;77.05;100653.66;6229698;22;45557;-95
2022/11/06 00:04:31;;;;;;;;;6.00;6.00;;;;;9.70;77.10;100861.53;6230146;22;45251;-96
2022/11/06 00:07:00;;;;;;;;;8.25;6.50;;;;;7.09;77.25;100413.69;6223281;22;45286;-96
2022/11/06 00:09:36;;;;;;;;;3.75;3.75;;;;;7.07;77.22;100420.72;6224978;22;45211;-96
2022/11/06 00:12:06;;;;;;;;;4.00;4.00;;;;;7.12;77.45;100408.41;6258387;22;45266;-94
2022/11/06 00:14:40;;;;;;;;;8.25;7.00;;;;;9.62;77.30;100824.69;6237868;22;44820;-95
2022/11/06 00:17:16;;;;;;;;;6.00;4.00;;;;;9.63;77.24;100831.72;6236057;22;44723;-94
2022/11/06 00:19:44;;;;;;;;;5.75;5.75;;;;;8.36;77.32;100634.44;6262389;22;44864;-95
2022/11/06 00:22:20;;;;;;;;;5.00;4.75;;;;;9.63;77.39;100859.88;6189893;22;47262;-95
2022/11/06 00:24:48;;;;;;;;;6.00;5.00;;;;;6.87;77.12;100395.47;6236760;22;45230;-95
2022/11/06 00:27:17;;;;;;;;;5.00;5.00;;;;;7.14;77.03;100453.97;6207154;22;45145;-95
2022/11/06 00:29:46;;;;;;;;;5.50;5.50;;;;;8.92;77.22;100736.69;6232860;22;45270;-95
2022/11/06 00:32:17;;;;;;;;;7.25;5.25;;;;;9.66;77.07;100862.50;6211638;22;45591;-95
2022/11/06 00:34:46;;;;;;;;;7.75;6.25;;;;;8.05;77.51;100602.25;6263597;22;45180;-95
2022/11/06 00:37:18;;;;;;;;;5.75;5.25;;;;;8.65;77.19;100692.13;6205439;22;45237;-95
2022/11/06 00:39:49;;;;;;;;;6.25;6.25;;;;;8.46;77.35;100649.31;6231268;22;45422;-95
2022/11/06 00:42:17;;;;;;;;;5.75;5.00;;;;;6.96;77.56;100385.78;6220834;22;46518;-95
2022/11/06 00:44:46;;;;;;;;;5.00;5.00;;;;;7.28;77.42;100438.09;6225612;22;45386;-95
2022/11/06 00:47:17;;;;;;;;;6.00;5.00;;;;;8.04;77.34;100566.31;6228035;22;45296;-95
2022/11/06 00:50:00;;;;;;;;;4.00;1.00;;;;;7.46;77.59;100476.50;6254858;22;45275;-94
2022/11/06 00:52:34;;;;;;;;;8.50;6.50;;;;;8.59;77.34;100681.66;6232042;22;45287;-95
2022/11/06 00:55:01;;;;;;;;;7.00;6.25;;;;;9.63;77.62;100837.00;6258756;22;44822;-95
2022/11/06 00:57:31;;;;;;;;;5.75;3.75;;;;;8.01;77.60;100554.03;6204516;22;45288;-96
2022/11/06 00:59:58;;;;;;;;;4.75;4.00;;;;;7.87;77.40;100522.59;6205077;22;45193;-95
2022/11/06 01:02:27;;;;;;;;;3.00;3.00;;;;;9.12;77.53;100744.38;6204645;22;45168;-96
2022/11/06 01:04:55;;;;;;;;;5.25;5.00;;;;;6.58;77.14;100307.25;6207232;22;44745;-96
2022/11/06 01:07:29;;;;;;;;;3.00;3.00;;;;;9.64;77.88;100820.28;6230561;22;45226;-96
2022/11/06 01:09:55;;;;;;;;;6.00;4.50;;;;;9.64;77.63;100822.91;6228991;22;45334;-95
2022/11/06 01:12:22;;;;;;;;;7.00;5.00;;;;;7.14;77.39;100396.16;6261338;22;45345;-96
2022/11/06 01:14:58;;;;;;;;;4.00;4.00;;;;;8.39;77.52;100609.84;6240748;22;44573;-95
2022/11/06 01:17:27;;;;;;;;;4.00;4.00;;;;;7.15;76.91;100368.97;6239469;22;44670;-96
2022/11/06 01:19:58;;;;;;;;;5.00;5.00;;;;;9.41;77.47;100736.09;6200644;22;45227;-95
2022/11/06 01:22:27;;;;;;;;;4.00;4.00;;;;;9.16;77.39;100701.25;6224875;22;46324;-95
2022/11/06 01:25:04;;;;;;;;;1.00;1.00;;;;;9.22;77.61;100703.81;6252384;22;45184;-95
2022/11/06 01:27:36;;;;;;;;;3.00;3.00;;;;;9.79;77.50;100803.34;6238547;22;44780;-95
2022/11/06 01:30:08;;;;;;;;;4.50;4.25;;;;;8.11;77.26;100515.34;6214139;22;45171;-95
2022/11/06 01:32:47;;;;;;;;;2.50;2.25;;;;;8.04;77.45;100518.94;6243906;22;45159;-95
2022/11/06 01:35:25;;;;;;;;;5.00;5.00;;;;;7.31;77.65;100360.94;6243448;22;45224;-95
2022/11/06 01:37:52;;;;;;;;;4.50;4.50;;;;;8.36;77.28;100558.06;6234060;22;44627;-95
2022/11/06 01:40:20;;;;;;;;;3.00;3.00;;;;;9.27;77.28;100715.19;6235558;22;44881;-95
2022/11/06 01:42:49;;;;;;;;;4.00;3.25;;;;;9.89;77.41;100809.41;6245384;22;45083;-95
2022/11/06 01:45:29;;;;;;;;;3.00;3.00;;;;;9.89;77.25;100820.81;6246293;22;44695;-95
2022/11/06 01:48:05;;;;;;;;;3.75;3.25;;;;;9.34;77.27;100698.38;6244197;22;44671;-95
2022/11/06 01:50:40;;;;;;;;;4.50;4.50;;;;;8.26;76.86;100512.53;6242298;22;44770;-95
2022/11/06 01:53:29;;;;;;;;;4.00;4.00;;;;;9.97;76.94;100786.38;6243985;22;45462;-95
2022/11/06 01:56:04;;;;;;;;;3.00;3.00;;;;;8.34;77.49;100526.47;6247396;22;44717;-95
2022/11/06 01:58:36;;;;;;;;;4.00;4.00;;;;;7.73;77.31;100403.44;6212446;22;45264;-95
2022/11/06 02:01:04;;;;;;;;;5.75;5.75;;;;;8.97;76.87;100605.69;6241450;22;44965;-95
2022/11/06 02:03:41;;;;;;;;;6.25;6.25;;;;;7.26;76.96;100296.13;6215824;22;47283;-95
2022/11/06 02:06:08;;;;;;;;;1.75;1.75;;;;;10.01;76.86;100766.97;6220490;22;44637;-95
2022/11/06 02:08:34;;;;;;;;;5.25;4.25;;;;;7.07;76.66;100271.78;6239820;22;44734;-94
2022/11/06 02:11:00;;;;;;;;;3.00;2.25;;;;;7.54;77.04;100343.16;6236172;22;44953;-95
2022/11/06 02:14:00;;;;;;;;;4.00;4.00;;;;;6.91;76.59;100242.19;6263760;22;45348;-94
2022/11/06 02:16:52;;;;;;;;;4.50;3.00;;;;;10.03;77.00;100757.25;6239067;22;44630;-96
2022/11/06 02:20:03;;;;;;;;;4.25;3.50;;;;;10.01;76.67;100730.00;6223582;22;45422;-95
2022/11/06 02:23:08;;;;;;;;;6.25;4.50;;;;;10.02;76.94;100726.47;6136786;23;45279;-95
2022/11/06 02:25:50;;;;;;;;;2.50;2.00;;;;;9.46;77.21;100614.69;6100149;23;45639;-94
2022/11/06 02:28:57;;;;;;;;;4.00;4.00;;;;;7.08;76.48;100206.97;6095100;23;45310;-93
2022/11/06 02:31:28;;;;;;;;;5.75;5.75;;;;;8.37;76.81;100430.75;6018704;23;45150;-93
2022/11/06 02:34:01;;;;;;;;;4.75;4.75;;;;;9.42;77.16;100611.22;6024187;23;44820;-94
2022/11/06 02:36:35;;;;;;;;;4.25;4.25;;;;;6.85;76.86;100202.84;6041726;23;45307;-93
2022/11/06 02:39:08;;;;;;;;;5.75;5.75;;;;;7.26;77.10;100266.34;6055835;23;45047;-92
2022/11/06 02:41:39;;;;;;;;;6.00;5.00;;;;;9.98;76.93;100724.78;6057034;23;44623;-92
2022/11/06 02:44:13;;;;;;;;;5.50;4.75;;;;;7.34;76.69;100264.50;6059653;23;44906;-93
2022/11/06 02:46:48;;;;;;;;;2.25;2.25;;;;;8.73;76.92;100518.16;6056042;23;46844;-93
2022/11/06 02:49:23;;;;;;;;;5.00;4.00;;;;;9.38;76.91;100612.16;6025055;23;44742;-93
2022/11/06 02:51:58;;;;;;;;;5.50;4.00;;;;;7.27;76.80;100275.94;6039574;23;45342;-93
2022/11/06 02:54:28;;;;;;;;;7.50;5.00;;;;;9.38;76.50;100613.03;6041503;23;45279;-94
2022/11/06 02:57:04;;;;;;;;;2.00;2.00;;;;;9.00;77.01;100555.56;6109787;23;47016;-93
2022/11/06 02:59:43;;;;;;;;;3.00;3.00;;;;;9.96;76.81;100727.44;6115046;23;45230;-94
2022/11/06 03:02:16;;;;;;;;;5.00;4.00;;;;;8.91;76.77;100531.97;6105198;23;45392;-92
2022/11/06 03:04:54;;;;;;;;;4.00;4.00;;;;;8.80;76.53;100518.94;6078365;23;45220;-92
2022/11/06 03:07:42;;;;;;;;;3.50;3.50;;;;;7.97;76.60;100368.06;6133135;22;45337;-93
2022/11/06 03:10:11;;;;;;;;;1.00;1.00;;;;;8.85;76.48;100517.09;6203604;22;45102;-92
2022/11/06 03:12:55;;;;;;;;;3.00;3.00;;;;;8.34;76.37;100430.81;6206482;22;44852;-93
2022/11/06 03:15:32;;;;;;;;;3.00;2.00;;;;;8.44;76.60;100436.84;6200620;22;45248;-93
2022/11/06 03:18:11;;;;;;;;;5.00;4.00;;;;;9.32;77.27;100589.41;6193608;22;46559;-93
2022/11/06 03:20:59;;;;;;;;;5.00;5.00;;;;;6.75;76.18;100135.50;6193528;22;45260;-92
2022/11/06 03:23:43;;;;;;;;;5.75;5.00;;;;;9.91;76.57;100686.16;6192381;22;45214;-93
2022/11/06 03:26:27;;;;;;;;;5.00;5.00;;;;;8.60;76.97;100483.16;6195823;22;45239;-93
2022/11/06 03:29:01;;;;;;;;;3.75;3.75;;;;;9.57;76.80;100632.09;6229317;22;47145;-95
2022/11/06 03:31:39;;;;;;;;;3.50;3.50;;;;;8.82;77.10;100507.47;6211236;22;45208;-95
2022/11/06 03:34:16;;;;;;;;;3.00;3.00;;;;;8.78;76.82;100489.09;6228307;22;45185;-92
2022/11/06 03:36:55;;;;;;;;;4.00;4.00;;;;;7.60;76.20;100293.09;6222904;22;45215;-93
2022/11/06 03:39:31;;;;;;;;;6.50;3.75;;;;;9.59;76.71;100613.59;6226861;22;46612;-94
2022/11/06 03:45:24;;;;;;;;;8.25;3.00;;;;;9.46;76.66;100604.13;6269376;22;44713;-92
2022/11/06 03:51:27;;;;;;;;;4.00;4.00;;;;;7.79;76.87;100367.44;6249145;22;45721;-94
2022/11/06 03:54:12;;;;;;;;;3.75;3.25;;;;;6.92;77.10;100201.00;6221965;22;45338;-93
2022/11/06 03:56:49;;;;;;;;;5.00;4.00;;;;;8.64;77.00;100508.59;6200389;22;45231;-93
2022/11/06 03:59:22;;;;;;;;;5.75;4.00;;;;;8.23;77.30;100412.53;6230784;22;45575;-93
2022/11/06 04:01:52;;;;;;;;;5.00;5.00;;;;;9.10;77.31;100564.22;6232968;22;45328;-93
2022/11/06 04:04:23;;;;;;;;;4.25;4.25;;;;;9.06;77.38;100559.00;6243795;22;44568;-93
2022/11/06 04:07:01;;;;;;;;;3.75;3.00;;;;;7.87;76.78;100350.69;6232435;22;45270;-94
2022/11/06 04:15:15;;;;;;;;;3.75;2.75;;;;;9.06;77.44;100558.09;6252370;22;45171;-95
2022/11/06 04:18:04;;;;;;;;;5.00;3.50;;;;;7.80;77.43;100341.97;6226857;22;45176;-95
2022/11/06 04:27:20;;;;;;;;;7.75;3.25;;;;;9.39;77.08;100608.63;6256180;22;44666;-95
2022/11/06 04:30:07;;;;;;;;;5.75;4.00;;;;;8.98;77.50;100574.03;6224736;22;45241;-95
2022/11/06 04:33:21;;;;;;;;;4.75;4.75;;;;;9.36;77.54;100606.91;6256555;22;44865;-93
2022/11/06 04:36:20;;;;;;;;;4.00;2.00;;;;;8.26;77.53;100422.13;6089415;23;45198;-95
2022/11/06 04:39:23;;;;;;;;;2.75;2.75;;;;;6.70;76.70;100168.84;6101358;23;45257;-95
2022/11/06 04:42:20;;;;;;;;;2.00;2.00;;;;;8.82;77.07;100522.41;6080706;23;45403;-95
2022/11/06 04:45:01;;;;;;;;;4.00;2.00;;;;;6.76;77.39;100181.91;6102831;23;44851;-95
2022/11/06 04:47:54;;;;;;;;;4.00;4.00;;;;;9.33;77.19;100609.59;6060769;23;47625;-95
2022/11/06 04:50:27;;;;;;;;;5.50;3.00;;;;;9.34;76.92;100626.31;6017994;23;45167;-94
2022/11/06 04:52:59;;;;;;;;;2.00;2.00;;;;;7.79;76.73;100340.25;5969838;23;45191;-94
2022/11/06 04:55:29;;;;;;;;;4.00;4.00;;;;;6.51;76.67;100116.53;6023881;23;44793;-95
2022/11/06 04:58:01;;;;;;;;;7.00;4.50;;;;;8.91;77.45;100532.81;5968286;23;46649;-95
2022/11/06 05:00:35;;;;;;;;;4.00;4.00;;;;;8.45;77.29;100464.94;6017661;23;44692;-96
2022/11/06 05:03:06;;;;;;;;;3.25;2.25;;;;;7.73;77.16;100327.13;5977312;23;44640;-94
2022/11/06 05:05:35;;;;;;;;;5.00;5.00;;;;;6.30;77.16;100079.97;6003175;23;44812;-94
2022/11/06 05:08:01;;;;;;;;;2.50;2.50;;;;;8.69;77.36;100475.13;6007284;23;47115;-95
2022/11/06 05:10:27;;;;;;;;;4.50;3.00;;;;;6.90;76.91;100161.59;5996204;23;44571;-95
2022/11/06 05:12:53;;;;;;;;;4.00;2.00;;;;;9.33;76.91;100572.66;6038211;23;44679;-93
2022/11/06 05:15:19;;;;;;;;;4.00;4.00;;;;;6.58;76.80;100110.28;6071713;23;45523;-92
2022/11/06 05:17:46;;;;;;;;;3.00;3.00;;;;;7.62;76.74;100301.88;6076717;23;45318;-95
2022/11/06 05:20:14;;;;;;;;;4.00;3.00;;;;;8.14;77.29;100381.03;6083532;23;45382;-95
2022/11/06 05:23:01;;;;;;;;;3.00;3.00;;;;;7.25;77.08;100248.81;6112646;23;44678;-95
2022/11/06 05:25:34;;;;;;;;;2.25;2.25;;;;;9.29;77.38;100593.81;6085482;23;44795;-95
2022/11/06 05:28:01;;;;;;;;;5.00;4.00;;;;;9.26;77.13;100586.81;6239238;22;45459;-95
2022/11/06 05:30:34;;;;;;;;;3.75;3.75;;;;;7.14;77.46;100217.41;6233005;22;44865;-95
2022/11/06 05:33:00;;;;;;;;;3.25;3.25;;;;;7.89;76.93;100333.09;6231292;22;45374;-94
2022/11/06 05:35:32;;;;;;;;;3.75;3.75;;;;;8.05;76.89;100365.34;6233180;22;45102;-94
2022/11/06 05:38:32;;;;;;;;;4.25;4.25;;;;;7.09;77.38;100208.69;6259782;22;45265;-95
2022/11/06 05:41:04;;;;;;;;;3.00;3.00;;;;;6.25;77.24;100076.53;6242836;22;44563;-95
2022/11/06 05:43:42;;;;;;;;;5.25;4.50;;;;;9.02;77.49;100546.75;6226143;22;45215;-95
2022/11/06 05:46:14;;;;;;;;;3.25;3.25;;;;;8.09;77.36;100372.31;6261249;22;44802;-95
2022/11/06 05:48:54;;;;;;;;;3.75;3.00;;;;;7.52;77.30;100255.50;6218844;22;45166;-95
2022/11/06 05:54:44;;;;;;;;;2.50;2.50;;;;;9.14;77.12;100545.69;6262821;22;45126;-96
2022/11/06 05:57:19;;;;;;;;;5.75;4.00;;;;;9.14;77.12;100558.00;6263009;22;45234;-96
2022/11/06 05:59:47;;;;;;;;;4.00;2.25;;;;;6.55;76.55;100102.44;6208521;22;46978;-95
2022/11/06 06:02:20;;;;;;;;;4.00;4.00;;;;;7.53;76.86;100283.56;6234814;22;45268;-94
2022/11/06 06:04:48;;;;;;;;;6.00;3.75;;;;;9.13;77.51;100537.81;6206407;22;44658;-95
2022/11/06 06:07:24;;;;;;;;;4.00;4.00;;;;;8.54;77.07;100449.88;6205750;22;45339;-95
2022/11/06 06:09:52;;;;;;;;;5.00;3.00;;;;;7.91;77.21;100347.09;6235951;22;47002;-95
2022/11/06 06:12:22;;;;;;;;;6.25;3.00;;;;;6.93;77.06;100179.97;6231336;22;45298;-93
2022/11/06 06:18:12;;;;;;;;;7.75;4.00;;;;;7.46;77.22;100263.47;6261984;22;44646;-96
2022/11/06 06:20:47;;;;;;;;;3.75;3.75;;;;;7.94;77.32;100342.69;6214238;22;47144;-95
2022/11/06 06:23:17;;;;;;;;;3.00;3.00;;;;;8.03;77.17;100356.59;6222477;22;44692;-95
2022/11/06 06:25:45;;;;;;;;;5.75;4.00;;;;;8.99;76.95;100524.84;6247026;22;45125;-95
2022/11/06 06:28:16;;;;;;;;;4.50;4.50;;;;;7.02;77.10;100186.00;6219262;22;44762;-95
2022/11/06 06:30:50;;;;;;;;;4.75;4.75;;;;;8.37;77.27;100388.63;6272646;22;45114;-94
2022/11/06 06:33:19;;;;;;;;;3.00;3.00;;;;;8.81;77.07;100465.34;6271218;22;44782;-95
2022/11/06 06:35:45;;;;;;;;;5.00;4.00;;;;;6.42;76.73;100077.22;6218731;22;44775;-94
2022/11/06 06:38:12;;;;;;;;;2.00;2.00;;;;;8.28;76.70;100365.91;6268149;22;45337;-95
2022/11/06 06:40:47;;;;;;;;;3.75;3.50;;;;;6.48;76.46;100057.91;6240090;22;46357;-95
2022/11/06 06:43:34;;;;;;;;;5.00;5.00;;;;;8.98;77.17;100478.25;6245511;22;44724;-94
2022/11/06 06:46:07;;;;;;;;;4.00;4.00;;;;;8.39;76.65;100380.72;6243120;22;44720;-94
2022/11/06 06:48:35;;;;;;;;;5.25;4.25;;;;;8.08;76.96;100339.88;6245340;22;45059;-93
2022/11/06 06:51:06;;;;;;;;;3.25;3.25;;;;;6.52;76.91;100065.72;6270236;22;45134;-94
2022/11/06 06:53:33;;;;;;;;;7.25;7.25;;;;;9.00;77.17;100474.72;6244119;22;45215;-96
2022/11/06 06:56:03;;;;;;;;;5.00;4.00;;;;;8.98;77.36;100489.66;6243194;22;44695;-95
2022/11/06 06:58:42;;;;;;;;;6.25;5.00;;;;;5.83;76.89;99938.75;6244742;22;44893;-95
2022/11/06 07:01:13;;;;;;;;;5.25;3.25;;;;;6.82;77.23;100095.16;6268958;22;45144;-95
2022/11/06 07:03:58;;;;;;;;;10.25;5.50;;;;;8.99;77.22;100445.75;6267649;22;44701;-94
2022/11/06 07:06:29;;;;;;;;;1.00;0.00;;;;;8.26;76.85;100328.22;6244258;22;44630;-95
2022/11/06 07:08:55;;;;;;;;;6.25;3.75;;;;;6.93;76.80;100106.38;6242337;22;44824;-95
2022/11/06 07:11:35;;;;;;;;;4.25;3.00;;;;;8.95;76.84;100442.25;6264639;22;45466;-94
2022/11/06 07:14:01;;;;;;;;;4.00;3.00;;;;;8.96;77.25;100454.56;6231299;22;44836;-95
2022/11/06 07:16:42;;;;;;;;;7.25;6.00;;;;;7.32;76.56;100192.66;6205725;22;44760;-94
2022/11/06 07:19:15;;;;;;;;;3.25;3.25;;;;;8.97;76.82;100451.00;6252578;22;44813;-94
2022/11/06 07:25:07;;;;;;;;;4.25;4.00;;;;;6.42;76.97;100024.69;6262768;22;44681;-95
2022/11/06 07:27:41;;;;;;;;;3.50;3.50;;;;;8.39;77.10;100354.38;6227742;22;45233;-95
2022/11/06 07:30:40;;;;;;;;;;;;;;;;;;;;;
2022/11/06 07:36:39;;;;;;;;;4.25;4.00;;;;;8.41;76.66;100340.28;6165333;23;45402;-96
2022/11/06 07:42:31;;;;;;;;;5.50;3.50;;;;;6.96;76.49;100065.22;6163475;23;45305;-95
2022/11/06 07:45:00;;;;;;;;;3.00;3.00;;;;;6.42;76.38;99966.94;6134376;23;45383;-95
2022/11/06 07:47:35;;;;;;;;;3.25;3.25;;;;;6.55;76.24;100007.06;6163929;23;44786;-95
2022/11/06 07:50:06;;;;;;;;;2.75;2.75;;;;;7.51;76.85;100159.09;6106029;23;45347;-93
2022/11/06 07:55:55;;;;;;;;;4.25;3.25;;;;;7.37;76.56;100140.00;6160936;23;45268;-94
2022/11/06 07:58:24;;;;;;;;;3.50;2.50;;;;;6.98;76.02;100073.94;6157203;23;45274;-93
2022/11/06 08:00:52;;;;;;;;;3.00;3.00;;;;;8.27;76.45;100272.00;6155095;23;45260;-93
2022/11/06 08:03:18;;;;;;;;;3.00;3.00;;;;;8.20;76.58;100270.38;6171153;22;44860;-93
2022/11/06 08:05:48;;;;;;;;;3.75;3.75;;;;;9.23;76.46;100429.53;6166594;23;46941;-96
2022/11/06 08:08:18;;;;;;;;;2.50;2.50;;;;;6.70;76.60;100000.75;6166247;23;45318;-95
2022/11/06 08:10:46;;;;;;;;;3.25;2.75;;;;;7.06;76.58;100051.03;6184078;22;45141;-92
2022/11/06 08:13:16;;;;;;;;;3.25;2.25;;;;;7.45;75.83;100117.09;6224157;22;45294;-93
2022/11/06 08:15:44;;;;;;;;;6.00;3.00;;;;;8.01;76.24;100212.72;6223907;22;47096;-93
2022/11/06 08:18:13;;;;;;;;;5.00;3.75;;;;;6.55;75.65;99952.78;6225635;22;44659;-94
2022/11/06 08:20:49;;;;;;;;;3.00;3.00;;;;;6.40;76.05;99917.09;6204129;22;45368;-93
2022/11/06 08:23:27;;;;;;;;;3.00;3.00;;;;;6.77;76.07;99986.63;6229385;22;45649;-95
2022/11/06 08:26:01;;;;;;;;;3.00;3.00;;;;;9.36;76.27;100401.16;6239904;22;45195;-93
2022/11/06 08:28:36;;;;;;;;;3.25;2.00;;;;;8.95;76.24;100355.28;6238025;22;45276;-95
2022/11/06 08:31:06;;;;;;;;;3.25;3.00;;;;;6.90;76.06;99993.44;6235122;22;45241;-95
2022/11/06 08:34:07;;;;;;;;;3.00;1.75;;;;;8.10;75.98;100187.16;6235339;22;44849;-95
2022/11/06 08:36:51;;;;;;;;;6.00;4.00;;;;;8.06;76.51;100172.31;6241320;22;46836;-94
2022/11/06 08:39:40;;;;;;;;;3.00;3.00;;;;;7.84;76.59;100141.06;6243629;22;44653;-94
2022/11/06 08:42:10;;;;;;;;;2.50;2.50;;;;;9.38;76.41;100412.56;6242108;22;44806;-95
2022/11/06 08:44:50;;;;;;;;;3.00;3.00;;;;;7.15;76.77;100050.03;6236523;22;44889;-95
2022/11/06 08:50:41;;;;;;;;;;;;;;;;;;;;;
2022/11/06 08:53:20;;;;;;;;;4.00;3.00;;;;;6.92;76.89;100017.06;6159325;22;67931;-94
2022/11/06 09:08:11;;;;;;;;;6.00;4.00;;;;;6.69;78.43;100002.50;6257446;22;44762;-96
2022/11/06 09:10:43;;;;;;;;;3.75;3.75;;;;;8.07;78.79;100237.22;6255469;22;45230;-94
2022/11/06 09:13:17;;;;;;;;;3.00;3.00;;;;;7.20;78.65;100077.16;6258186;22;44586;-95
2022/11/06 09:15:48;;;;;;;;;3.75;3.75;;;;;8.40;79.44;100288.50;6243854;22;44655;-95
2022/11/06 09:50:39;;;;;;;;;5.00;4.00;;;;;6.90;80.61;100014.47;6098167;22;45317;-93
2022/11/06 09:53:47;;;;;;;;;6.00;5.00;;;;;7.15;81.61;100050.94;6247267;22;45274;-92
2022/11/06 09:56:17;;;;;;;;;5.75;5.25;;;;;6.40;80.58;99948.59;6108986;22;45443;-92
2022/11/06 09:58:43;;;;;;;;;9.25;7.00;;;;;6.63;81.18;99970.19;6222874;22;46645;-91
2022/11/06 10:01:22;;;;;;;;;3.25;3.00;;;;;7.67;80.87;100130.81;6236022;22;45431;-91
2022/11/06 10:04:04;;;;;;;;;6.75;5.25;;;;;5.65;81.03;99786.88;6225229;22;46859;-93
2022/11/06 10:06:33;;;;;;;;;7.25;5.00;;;;;8.20;81.29;100217.72;6221175;22;45250;-92
2022/11/06 10:09:05;;;;;;;;;6.00;6.00;;;;;6.55;81.29;99921.25;6246660;22;46952;-92
2022/11/06 10:12:08;;;;;;;;;4.25;4.25;;;;;8.80;81.71;100297.56;6246463;22;45360;-92
2022/11/06 10:14:36;;;;;;;;;3.25;3.25;;;;;8.81;81.30;100296.66;6220287;22;45388;-92
2022/11/06 10:17:31;;;;;;;;;3.75;2.75;;;;;8.53;81.83;100249.69;6217812;22;45395;-91
2022/11/06 10:20:03;;;;;;;;;5.25;3.25;;;;;8.78;81.62;100294.09;6213749;22;47572;-90
2022/11/06 10:23:01;;;;;;;;;6.75;4.50;;;;;8.22;82.03;100192.22;6214065;22;45429;-91
2022/11/06 10:25:56;;;;;;;;;5.25;5.25;;;;;8.48;82.58;100252.41;6219202;22;45381;-91
2022/11/06 10:28:43;;;;;;;;;4.75;4.00;;;;;8.28;82.53;100231.63;6236397;22;44853;-92
2022/11/06 10:31:27;;;;;;;;;4.75;4.75;;;;;7.16;82.24;100025.50;6220528;22;47304;-92
2022/11/06 10:34:01;;;;;;;;;5.75;4.00;;;;;8.17;82.89;100196.72;6239644;22;45366;-91
2022/11/06 10:36:46;;;;;;;;;11.75;9.50;;;;;8.75;83.00;100299.41;6214319;22;45266;-89
2022/11/06 10:39:21;;;;;;;;;11.50;6.00;;;;;8.26;82.95;100227.25;6206561;22;46312;-91
2022/11/06 10:41:57;;;;;;;;;5.25;5.25;;;;;8.21;83.68;100224.72;6237199;22;46981;-91
2022/11/06 10:44:41;;;;;;;;;11.00;7.25;;;;;8.13;83.58;100216.06;6186056;23;45303;-91
2022/11/06 10:47:28;;;;;;;;;6.75;6.75;;;;;8.26;83.20;100228.16;6192900;23;45234;-89
2022/11/06 10:50:01;;;;;;;;;3.25;3.25;;;;;6.88;83.25;99989.97;6191010;22;45202;-91
2022/11/06 10:52:45;;;;;;;;;9.00;5.25;;;;;8.69;84.62;100293.31;6200320;23;47930;-92
2022/11/06 10:55:32;;;;;;;;;4.00;4.00;;;;;7.96;84.06;100161.94;6188100;23;45374;-90
2022/11/06 10:58:04;;;;;;;;;5.00;4.50;;;;;7.49;84.47;100070.59;6211326;22;45311;-91
2022/11/06 11:00:32;;;;;;;;;9.00;5.25;;;;;6.87;84.27;99982.13;6195767;23;45358;-91
2022/11/06 11:03:05;;;;;;;;;5.75;5.75;;;;;6.06;83.74;99824.84;6226255;22;46871;-91
2022/11/06 11:05:42;;;;;;;;;9.25;8.50;;;;;8.70;84.58;100271.34;6198194;22;45307;-92
2022/11/06 11:08:29;;;;;;;;;10.25;8.75;;;;;8.69;85.10;100248.53;6201406;22;44726;-92
2022/11/06 11:11:18;;;;;;;;;8.00;6.25;;;;;7.76;85.17;100095.59;6199484;22;45200;-90
2022/11/06 11:14:00;;;;;;;;;7.25;6.00;;;;;7.25;84.58;100026.22;6208291;22;47084;-91
2022/11/06 11:16:44;;;;;;;;;8.00;5.25;;;;;7.95;84.81;100141.75;6210988;22;44985;-91
2022/11/06 11:19:31;;;;;;;;;6.00;6.00;;;;;8.70;84.79;100252.91;6201701;22;45486;-89
2022/11/06 11:22:16;;;;;;;;;6.75;6.75;;;;;8.74;85.10;100247.59;6198496;22;45300;-90
2022/11/06 11:25:01;;;;;;;;;8.75;7.00;;;;;8.74;85.37;100239.69;6180760;22;47097;-92
2022/11/06 11:27:49;;;;;;;;;8.75;6.00;;;;;8.74;85.68;100237.91;6211805;22;45212;-92
2022/11/06 11:30:32;;;;;;;;;9.75;7.75;;;;;7.77;85.91;100073.66;6209589;22;44686;-91
2022/11/06 11:33:00;;;;;;;;;11.25;9.00;;;;;7.98;86.06;100107.50;6206335;22;44924;-90
2022/11/06 11:35:36;;;;;;;;;7.00;7.00;;;;;7.73;87.08;100069.31;6172120;22;47074;-91
2022/11/06 11:38:25;;;;;;;;;7.50;6.00;;;;;5.70;87.56;99695.88;6193453;22;45380;-92
2022/11/06 11:41:35;;;;;;;;;13.25;10.25;;;;;7.82;87.49;100038.47;6226339;22;45449;-90
2022/11/06 11:44:11;;;;;;;;;9.50;7.25;;;;;8.67;87.69;100173.94;6197963;22;45385;-93
2022/11/06 11:46:55;;;;;;;;;10.75;10.75;;;;;8.68;87.48;100182.69;6200813;22;46780;-91
2022/11/06 11:49:32;;;;;;;;;9.25;6.75;;;;;8.52;88.90;100146.09;6199611;22;45373;-92
2022/11/06 11:52:10;;;;;;;;;9.75;9.75;;;;;7.22;88.65;99931.66;6202972;22;45358;-89
2022/11/06 11:54:51;;;;;;;;;10.00;9.50;;;;;8.67;88.30;100160.75;6204062;22;45176;-91
2022/11/06 11:57:28;;;;;;;;;11.50;11.50;;;;;7.52;88.14;99960.94;6201280;22;46574;-90
2022/11/06 12:00:04;;;;;;;;;8.50;8.50;;;;;8.11;88.73;100070.44;6171345;22;45348;-91
2022/11/06 12:02:35;;;;;;;;;10.25;7.25;;;;;6.18;89.67;99755.53;6216314;22;45271;-90
2022/11/06 12:05:11;;;;;;;;;7.25;5.50;;;;;7.90;89.56;100014.66;6197244;22;45283;-90
2022/11/06 12:07:42;;;;;;;;;11.00;9.00;;;;;8.69;90.01;100158.09;6196438;22;47230;-91
2022/11/06 12:10:34;;;;;;;;;9.25;9.25;;;;;8.68;89.82;100153.69;6210048;22;44671;-90
2022/11/06 12:13:06;;;;;;;;;11.50;8.75;;;;;8.29;90.33;100077.13;6234316;22;44678;-91
2022/11/06 12:15:44;;;;;;;;;9.00;9.00;;;;;8.73;90.05;100146.59;6200107;22;44850;-91
2022/11/06 12:18:23;;;;;;;;;10.50;10.50;;;;;8.58;90.35;100137.22;6198168;22;47264;-92
2022/11/06 12:21:06;;;;;;;;;9.00;7.00;;;;;8.80;90.58;100158.72;6203713;22;45457;-91
2022/11/06 12:24:12;;;;;;;;;8.75;6.75;;;;;6.64;90.03;99761.84;6191701;22;45180;-90
2022/11/06 12:26:53;;;;;;;;;9.50;8.50;;;;;8.52;89.98;100069.69;6189039;22;44911;-92
2022/11/06 12:29:26;;;;;;;;;7.00;7.00;;;;;8.86;90.44;100124.34;6201270;22;47434;-91
2022/11/06 12:32:28;;;;;;;;;10.50;10.50;;;;;8.89;90.66;100118.16;6199119;22;44804;-90
2022/11/06 12:35:03;;;;;;;;;11.75;7.25;;;;;8.29;90.71;100027.97;6204500;22;45276;-91
2022/11/06 12:38:12;;;;;;;;;7.00;5.50;;;;;8.88;89.94;100105.88;6198156;22;44762;-91
2022/11/06 12:40:44;;;;;;;;;10.25;9.25;;;;;8.48;90.33;100044.31;6197863;22;47161;-91
2022/11/06 12:43:46;;;;;;;;;11.25;11.25;;;;;8.87;90.43;100119.97;6178399;22;45490;-92
2022/11/06 12:46:59;;;;;;;;;11.50;9.75;;;;;8.02;90.70;99950.41;6179616;22;45418;-90
2022/11/06 12:49:46;;;;;;;;;9.50;8.50;;;;;8.83;90.86;100087.53;6109479;23;45495;-92
2022/11/06 12:52:27;;;;;;;;;8.75;6.25;;;;;7.99;90.97;99942.56;6090748;23;45147;-91
2022/11/06 12:55:06;;;;;;;;;6.00;6.00;;;;;8.36;91.57;100002.38;6111300;23;45285;-89
2022/11/06 12:58:04;;;;;;;;;10.00;6.25;;;;;8.79;91.22;100074.44;6084357;23;45388;-90
2022/11/06 13:01:03;;;;;;;;;11.25;8.00;;;;;8.80;92.47;100068.28;6130776;23;44782;-90
2022/11/06 13:03:36;;;;;;;;;11.25;8.75;;;;;8.51;92.06;100069.72;6077755;23;47602;-91
2022/11/06 13:06:07;;;;;;;;;9.00;6.75;;;;;6.14;92.18;99647.16;6080690;23;45403;-90
2022/11/06 13:09:03;;;;;;;;;8.00;7.75;;;;;8.79;92.74;100058.63;6084353;23;45597;-90
2022/11/06 13:11:42;;;;;;;;;10.25;8.50;;;;;8.82;92.71;100048.03;6129479;23;44934;-91
2022/11/06 13:14:40;;;;;;;;;10.75;9.75;;;;;8.85;92.81;100056.75;6077812;23;47364;-90
2022/11/06 13:17:20;;;;;;;;;9.00;9.00;;;;;7.86;92.77;99889.28;6137262;23;45277;-92
2022/11/06 13:20:05;;;;;;;;;9.50;9.50;;;;;7.54;93.03;99829.44;6077274;23;45376;-92
2022/11/06 13:22:52;;;;;;;;;9.50;6.00;;;;;8.93;93.63;100043.41;6075873;23;45339;-91
2022/11/06 13:25:41;;;;;;;;;10.00;10.00;;;;;8.39;94.54;99949.66;6171992;22;47369;-91
2022/11/06 13:28:40;;;;;;;;;12.75;11.25;;;;;8.99;93.99;100040.63;6211957;22;45196;-91
2022/11/06 13:31:15;;;;;;;;;7.00;5.75;;;;;8.46;95.05;99955.72;6093755;23;44767;-91
2022/11/06 13:34:02;;;;;;;;;14.50;11.75;;;;;9.09;94.73;100046.56;6114533;23;45371;-91
2022/11/06 13:39:33;;;;;;;;;13.00;11.00;;;;;9.00;95.21;100009.84;6134117;23;45249;-90
2022/11/06 13:42:01;;;;;;;;;12.00;11.00;;;;;8.58;95.26;99939.63;6128449;23;44649;-92
2022/11/06 13:44:31;;;;;;;;;9.00;7.00;;;;;8.63;94.78;99942.16;6074671;23;45531;-92
2022/11/06 13:47:18;;;;;;;;;14.25;11.75;;;;;9.10;94.83;100015.81;6072531;23;46242;-91
2022/11/06 13:49:54;;;;;;;;;11.25;11.25;;;;;9.22;95.27;100044.53;6077080;23;45384;-91
2022/11/06 13:52:58;;;;;;;;;13.75;11.75;;;;;9.23;94.82;100023.41;6123838;23;45241;-90